sensor_id;sensor_type;location;lat;lon;timestamp;P1;durP1;ratioP1;P2;durP2;ratioP2
5173;SDS011;2606;50.934;6.934;2023-02-13T00:00:00;22.00;;;9.20;;
5173;SDS011;2606;50.934;6.934;2023-02-13T00:02:25;19.07;;;8.60;;
5173;SDS011;2606;50.934;6.934;2023-02-13T00:04:51;16.40;;;7.43;;
5173;SDS011;2606;50.934;6.934;2023-02-13T00:07:16;22.00;;;10.00;;
5173;SDS011;2606;50.934;6.934;2023-02-13T00:09:42;21.47;;;10.00;;
5173;SDS011;2606;50.934;6.934;2023-02-13T00:12:07;15.47;;;8.30;;
5173;SDS011;2606;50.934;6.934;2023-02-13T00:14:34;18.67;;;8.10;;
5173;SDS011;2606;50.934;6.934;2023-02-13T00:17:01;17.47;;;8.50;;
5173;SDS011;2606;50.934;6.934;2023-02-13T00:19:26;20.07;;;8.57;;
5173;SDS011;2606;50.934;6.934;2023-02-13T00:21:52;16.03;;;8.00;;
5173;SDS011;2606;50.934;6.934;2023-02-13T00:24:18;17.73;;;8.73;;
5173;SDS011;2606;50.934;6.934;2023-02-13T00:26:43;15.93;;;8.00;;
5173;SDS011;2606;50.934;6.934;2023-02-13T00:29:09;14.30;;;7.13;;
5173;SDS011;2606;50.934;6.934;2023-02-13T00:31:34;17.33;;;8.03;;
5173;SDS011;2606;50.934;6.934;2023-02-13T00:34:00;18.43;;;8.30;;
5173;SDS011;2606;50.934;6.934;2023-02-13T00:36:25;21.43;;;8.60;;
5173;SDS011;2606;50.934;6.934;2023-02-13T00:38:52;19.70;;;8.33;;
5173;SDS011;2606;50.934;6.934;2023-02-13T00:41:18;16.00;;;8.47;;
5173;SDS011;2606;50.934;6.934;2023-02-13T00:43:45;15.70;;;7.97;;
5173;SDS011;2606;50.934;6.934;2023-02-13T00:46:12;15.53;;;7.63;;
5173;SDS011;2606;50.934;6.934;2023-02-13T00:48:38;18.83;;;7.43;;
5173;SDS011;2606;50.934;6.934;2023-02-13T00:51:04;14.20;;;7.23;;
5173;SDS011;2606;50.934;6.934;2023-02-13T00:53:31;15.83;;;7.43;;
5173;SDS011;2606;50.934;6.934;2023-02-13T00:55:58;13.40;;;6.83;;
5173;SDS011;2606;50.934;6.934;2023-02-13T00:58:23;17.90;;;8.20;;
5173;SDS011;2606;50.934;6.934;2023-02-13T01:00:49;18.33;;;8.13;;
5173;SDS011;2606;50.934;6.934;2023-02-13T01:03:16;17.50;;;7.17;;
5173;SDS011;2606;50.934;6.934;2023-02-13T01:05:43;18.50;;;7.90;;
5173;SDS011;2606;50.934;6.934;2023-02-13T01:08:09;17.17;;;7.87;;
5173;SDS011;2606;50.934;6.934;2023-02-13T01:10:36;14.00;;;7.50;;
5173;SDS011;2606;50.934;6.934;2023-02-13T01:13:02;14.80;;;7.17;;
5173;SDS011;2606;50.934;6.934;2023-02-13T01:15:28;14.70;;;7.03;;
5173;SDS011;2606;50.934;6.934;2023-02-13T01:17:54;13.60;;;7.53;;
5173;SDS011;2606;50.934;6.934;2023-02-13T01:20:21;12.00;;;6.80;;
5173;SDS011;2606;50.934;6.934;2023-02-13T01:22:47;13.90;;;7.30;;
5173;SDS011;2606;50.934;6.934;2023-02-13T01:25:13;12.97;;;7.37;;
5173;SDS011;2606;50.934;6.934;2023-02-13T01:27:39;14.10;;;6.97;;
5173;SDS011;2606;50.934;6.934;2023-02-13T01:30:05;12.70;;;6.67;;
5173;SDS011;2606;50.934;6.934;2023-02-13T01:32:37;16.50;;;7.67;;
5173;SDS011;2606;50.934;6.934;2023-02-13T01:35:06;14.00;;;6.90;;
5173;SDS011;2606;50.934;6.934;2023-02-13T01:37:33;14.77;;;7.60;;
5173;SDS011;2606;50.934;6.934;2023-02-13T01:39:59;13.90;;;7.00;;
5173;SDS011;2606;50.934;6.934;2023-02-13T01:42:25;14.07;;;6.37;;
5173;SDS011;2606;50.934;6.934;2023-02-13T01:44:56;11.80;;;6.40;;
5173;SDS011;2606;50.934;6.934;2023-02-13T01:53:06;15.67;;;6.90;;
5173;SDS011;2606;50.934;6.934;2023-02-13T01:55:54;13.93;;;6.80;;
5173;SDS011;2606;50.934;6.934;2023-02-13T01:58:37;11.13;;;6.30;;
5173;SDS011;2606;50.934;6.934;2023-02-13T02:01:06;12.20;;;6.50;;
5173;SDS011;2606;50.934;6.934;2023-02-13T02:03:44;17.30;;;7.80;;
5173;SDS011;2606;50.934;6.934;2023-02-13T02:16:22;11.57;;;5.93;;
5173;SDS011;2606;50.934;6.934;2023-02-13T02:18:49;11.67;;;5.37;;
5173;SDS011;2606;50.934;6.934;2023-02-13T02:27:16;11.07;;;6.27;;
5173;SDS011;2606;50.934;6.934;2023-02-13T02:49:39;12.07;;;6.20;;
5173;SDS011;2606;50.934;6.934;2023-02-13T02:52:26;14.77;;;6.60;;
5173;SDS011;2606;50.934;6.934;2023-02-13T02:55:09;10.20;;;5.80;;
5173;SDS011;2606;50.934;6.934;2023-02-13T02:57:44;11.00;;;5.80;;
5173;SDS011;2606;50.934;6.934;2023-02-13T03:00:35;12.20;;;6.90;;
5173;SDS011;2606;50.934;6.934;2023-02-13T03:03:22;11.63;;;6.50;;
5173;SDS011;2606;50.934;6.934;2023-02-13T03:09:01;13.20;;;6.97;;
5173;SDS011;2606;50.934;6.934;2023-02-13T03:11:50;10.93;;;5.97;;
5173;SDS011;2606;50.934;6.934;2023-02-13T03:14:36;10.30;;;5.67;;
5173;SDS011;2606;50.934;6.934;2023-02-13T03:17:02;11.97;;;6.90;;
5173;SDS011;2606;50.934;6.934;2023-02-13T03:20:01;13.90;;;6.60;;
5173;SDS011;2606;50.934;6.934;2023-02-13T03:23:10;11.70;;;6.33;;
5173;SDS011;2606;50.934;6.934;2023-02-13T03:32:04;14.20;;;6.10;;
5173;SDS011;2606;50.934;6.934;2023-02-13T03:34:22;14.00;;;7.00;;
5173;SDS011;2606;50.934;6.934;2023-02-13T03:36:52;9.93;;;6.00;;
5173;SDS011;2606;50.934;6.934;2023-02-13T03:42:31;11.67;;;6.43;;
5173;SDS011;2606;50.934;6.934;2023-02-13T03:45:02;8.93;;;6.20;;
5173;SDS011;2606;50.934;6.934;2023-02-13T03:47:55;13.30;;;7.13;;
5173;SDS011;2606;50.934;6.934;2023-02-13T03:50:22;12.93;;;7.03;;
5173;SDS011;2606;50.934;6.934;2023-02-13T03:52:58;14.37;;;7.33;;
5173;SDS011;2606;50.934;6.934;2023-02-13T03:55:31;14.03;;;7.03;;
5173;SDS011;2606;50.934;6.934;2023-02-13T03:58:25;12.27;;;6.90;;
5173;SDS011;2606;50.934;6.934;2023-02-13T04:01:14;12.30;;;6.73;;
5173;SDS011;2606;50.934;6.934;2023-02-13T04:03:47;12.90;;;7.00;;
5173;SDS011;2606;50.934;6.934;2023-02-13T04:06:15;16.57;;;7.97;;
5173;SDS011;2606;50.934;6.934;2023-02-13T04:08:45;14.47;;;7.30;;
5173;SDS011;2606;50.934;6.934;2023-02-13T04:12:12;10.83;;;6.53;;
5173;SDS011;2606;50.934;6.934;2023-02-13T04:14:14;11.30;;;6.90;;
5173;SDS011;2606;50.934;6.934;2023-02-13T04:16:43;12.77;;;7.37;;
5173;SDS011;2606;50.934;6.934;2023-02-13T04:19:14;15.33;;;7.97;;
5173;SDS011;2606;50.934;6.934;2023-02-13T04:21:40;16.43;;;7.50;;
5173;SDS011;2606;50.934;6.934;2023-02-13T04:24:06;17.50;;;8.87;;
5173;SDS011;2606;50.934;6.934;2023-02-13T04:26:36;13.77;;;7.70;;
5173;SDS011;2606;50.934;6.934;2023-02-13T04:29:04;13.40;;;7.03;;
5173;SDS011;2606;50.934;6.934;2023-02-13T04:31:29;14.53;;;7.10;;
5173;SDS011;2606;50.934;6.934;2023-02-13T04:33:55;14.23;;;7.70;;
5173;SDS011;2606;50.934;6.934;2023-02-13T04:36:21;14.13;;;7.63;;
5173;SDS011;2606;50.934;6.934;2023-02-13T04:38:47;13.50;;;7.90;;
5173;SDS011;2606;50.934;6.934;2023-02-13T04:41:13;17.57;;;9.60;;
5173;SDS011;2606;50.934;6.934;2023-02-13T04:43:38;13.43;;;8.17;;
5173;SDS011;2606;50.934;6.934;2023-02-13T04:46:04;16.70;;;8.97;;
5173;SDS011;2606;50.934;6.934;2023-02-13T04:48:29;15.50;;;8.50;;
5173;SDS011;2606;50.934;6.934;2023-02-13T04:50:55;17.50;;;9.10;;
5173;SDS011;2606;50.934;6.934;2023-02-13T04:53:21;15.20;;;8.40;;
5173;SDS011;2606;50.934;6.934;2023-02-13T04:55:46;15.20;;;8.70;;
5173;SDS011;2606;50.934;6.934;2023-02-13T04:58:12;16.67;;;9.57;;
5173;SDS011;2606;50.934;6.934;2023-02-13T05:00:38;15.50;;;7.90;;
5173;SDS011;2606;50.934;6.934;2023-02-13T05:03:04;15.37;;;8.57;;
5173;SDS011;2606;50.934;6.934;2023-02-13T05:05:35;16.40;;;7.87;;
5173;SDS011;2606;50.934;6.934;2023-02-13T05:08:01;16.30;;;9.20;;
5173;SDS011;2606;50.934;6.934;2023-02-13T05:10:27;15.30;;;8.30;;
5173;SDS011;2606;50.934;6.934;2023-02-13T05:12:53;18.00;;;9.03;;
5173;SDS011;2606;50.934;6.934;2023-02-13T05:15:19;16.00;;;8.47;;
5173;SDS011;2606;50.934;6.934;2023-02-13T05:17:44;14.37;;;8.87;;
5173;SDS011;2606;50.934;6.934;2023-02-13T05:20:11;17.00;;;9.00;;
5173;SDS011;2606;50.934;6.934;2023-02-13T05:22:42;16.30;;;8.93;;
5173;SDS011;2606;50.934;6.934;2023-02-13T05:25:27;14.47;;;8.27;;
5173;SDS011;2606;50.934;6.934;2023-02-13T05:27:53;18.73;;;7.90;;
5173;SDS011;2606;50.934;6.934;2023-02-13T05:30:18;16.50;;;8.57;;
5173;SDS011;2606;50.934;6.934;2023-02-13T05:32:44;17.73;;;8.83;;
5173;SDS011;2606;50.934;6.934;2023-02-13T05:35:09;20.80;;;10.10;;
5173;SDS011;2606;50.934;6.934;2023-02-13T05:37:35;15.20;;;8.13;;
5173;SDS011;2606;50.934;6.934;2023-02-13T05:40:01;14.70;;;8.50;;
5173;SDS011;2606;50.934;6.934;2023-02-13T05:42:26;18.20;;;8.27;;
5173;SDS011;2606;50.934;6.934;2023-02-13T05:44:52;18.60;;;9.97;;
5173;SDS011;2606;50.934;6.934;2023-02-13T05:47:17;21.60;;;10.43;;
5173;SDS011;2606;50.934;6.934;2023-02-13T05:49:43;18.40;;;9.43;;
5173;SDS011;2606;50.934;6.934;2023-02-13T05:52:08;18.00;;;10.10;;
5173;SDS011;2606;50.934;6.934;2023-02-13T05:54:34;19.43;;;9.30;;
5173;SDS011;2606;50.934;6.934;2023-02-13T05:57:02;21.30;;;10.33;;
5173;SDS011;2606;50.934;6.934;2023-02-13T05:59:28;15.23;;;8.00;;
5173;SDS011;2606;50.934;6.934;2023-02-13T06:01:53;16.33;;;8.50;;
5173;SDS011;2606;50.934;6.934;2023-02-13T06:04:19;18.80;;;9.97;;
5173;SDS011;2606;50.934;6.934;2023-02-13T06:06:44;20.50;;;9.60;;
5173;SDS011;2606;50.934;6.934;2023-02-13T06:09:10;19.57;;;9.53;;
5173;SDS011;2606;50.934;6.934;2023-02-13T06:11:35;19.20;;;10.00;;
5173;SDS011;2606;50.934;6.934;2023-02-13T06:14:01;15.90;;;8.70;;
5173;SDS011;2606;50.934;6.934;2023-02-13T06:16:26;19.73;;;9.00;;
5173;SDS011;2606;50.934;6.934;2023-02-13T06:18:55;16.47;;;8.43;;
5173;SDS011;2606;50.934;6.934;2023-02-13T06:21:21;18.50;;;9.93;;
5173;SDS011;2606;50.934;6.934;2023-02-13T06:23:46;16.70;;;8.27;;
5173;SDS011;2606;50.934;6.934;2023-02-13T06:26:12;14.87;;;8.40;;
5173;SDS011;2606;50.934;6.934;2023-02-13T06:28:38;17.10;;;8.97;;
5173;SDS011;2606;50.934;6.934;2023-02-13T06:31:03;19.60;;;9.47;;
5173;SDS011;2606;50.934;6.934;2023-02-13T06:33:29;17.30;;;9.47;;
5173;SDS011;2606;50.934;6.934;2023-02-13T06:35:55;17.83;;;8.50;;
5173;SDS011;2606;50.934;6.934;2023-02-13T06:38:20;15.23;;;7.80;;
5173;SDS011;2606;50.934;6.934;2023-02-13T06:40:46;19.33;;;10.27;;
5173;SDS011;2606;50.934;6.934;2023-02-13T06:43:13;29.77;;;14.27;;
5173;SDS011;2606;50.934;6.934;2023-02-13T06:45:39;19.50;;;9.90;;
5173;SDS011;2606;50.934;6.934;2023-02-13T06:48:05;26.57;;;11.20;;
5173;SDS011;2606;50.934;6.934;2023-02-13T06:50:31;18.43;;;9.20;;
5173;SDS011;2606;50.934;6.934;2023-02-13T06:52:58;20.93;;;9.27;;
5173;SDS011;2606;50.934;6.934;2023-02-13T06:55:24;23.20;;;11.00;;
5173;SDS011;2606;50.934;6.934;2023-02-13T06:57:51;22.80;;;9.10;;
5173;SDS011;2606;50.934;6.934;2023-02-13T07:00:17;17.50;;;8.30;;
5173;SDS011;2606;50.934;6.934;2023-02-13T07:02:44;20.13;;;9.53;;
5173;SDS011;2606;50.934;6.934;2023-02-13T07:05:10;17.40;;;9.03;;
5173;SDS011;2606;50.934;6.934;2023-02-13T07:07:37;14.17;;;8.30;;
5173;SDS011;2606;50.934;6.934;2023-02-13T07:10:05;17.60;;;9.20;;
5173;SDS011;2606;50.934;6.934;2023-02-13T07:12:33;17.80;;;8.00;;
5173;SDS011;2606;50.934;6.934;2023-02-13T07:14:59;18.10;;;8.93;;
5173;SDS011;2606;50.934;6.934;2023-02-13T07:17:24;20.20;;;8.40;;
5173;SDS011;2606;50.934;6.934;2023-02-13T07:19:50;16.83;;;8.77;;
5173;SDS011;2606;50.934;6.934;2023-02-13T07:22:16;16.47;;;7.23;;
5173;SDS011;2606;50.934;6.934;2023-02-13T07:24:42;16.07;;;8.43;;
5173;SDS011;2606;50.934;6.934;2023-02-13T07:27:07;17.17;;;8.70;;
5173;SDS011;2606;50.934;6.934;2023-02-13T07:29:33;19.60;;;7.87;;
5173;SDS011;2606;50.934;6.934;2023-02-13T07:31:59;15.40;;;8.13;;
5173;SDS011;2606;50.934;6.934;2023-02-13T07:34:24;14.77;;;7.60;;
5173;SDS011;2606;50.934;6.934;2023-02-13T07:36:50;13.07;;;7.47;;
5173;SDS011;2606;50.934;6.934;2023-02-13T07:39:16;19.83;;;8.97;;
5173;SDS011;2606;50.934;6.934;2023-02-13T07:41:41;15.50;;;8.57;;
5173;SDS011;2606;50.934;6.934;2023-02-13T07:44:07;17.30;;;7.93;;
5173;SDS011;2606;50.934;6.934;2023-02-13T07:46:32;16.83;;;8.60;;
5173;SDS011;2606;50.934;6.934;2023-02-13T07:48:58;16.57;;;9.30;;
5173;SDS011;2606;50.934;6.934;2023-02-13T07:51:24;14.63;;;8.67;;
5173;SDS011;2606;50.934;6.934;2023-02-13T07:53:52;14.43;;;7.80;;
5173;SDS011;2606;50.934;6.934;2023-02-13T07:56:18;16.40;;;8.47;;
5173;SDS011;2606;50.934;6.934;2023-02-13T07:58:43;16.30;;;8.87;;
5173;SDS011;2606;50.934;6.934;2023-02-13T08:01:10;16.17;;;7.70;;
5173;SDS011;2606;50.934;6.934;2023-02-13T08:03:37;14.43;;;8.20;;
5173;SDS011;2606;50.934;6.934;2023-02-13T08:06:03;13.60;;;7.17;;
5173;SDS011;2606;50.934;6.934;2023-02-13T08:08:29;19.87;;;9.63;;
5173;SDS011;2606;50.934;6.934;2023-02-13T08:10:55;18.60;;;8.60;;
5173;SDS011;2606;50.934;6.934;2023-02-13T08:13:40;14.73;;;8.57;;
5173;SDS011;2606;50.934;6.934;2023-02-13T08:16:06;16.23;;;8.67;;
5173;SDS011;2606;50.934;6.934;2023-02-13T08:18:32;15.73;;;7.50;;
5173;SDS011;2606;50.934;6.934;2023-02-13T08:20:57;14.00;;;8.17;;
5173;SDS011;2606;50.934;6.934;2023-02-13T08:23:25;15.10;;;8.40;;
5173;SDS011;2606;50.934;6.934;2023-02-13T08:25:50;13.23;;;7.90;;
5173;SDS011;2606;50.934;6.934;2023-02-13T08:28:16;16.60;;;8.00;;
5173;SDS011;2606;50.934;6.934;2023-02-13T08:30:42;13.37;;;7.90;;
5173;SDS011;2606;50.934;6.934;2023-02-13T08:33:07;15.67;;;8.57;;
5173;SDS011;2606;50.934;6.934;2023-02-13T08:35:33;15.60;;;8.20;;
5173;SDS011;2606;50.934;6.934;2023-02-13T08:38:02;16.50;;;8.10;;
5173;SDS011;2606;50.934;6.934;2023-02-13T08:40:28;12.90;;;7.10;;
5173;SDS011;2606;50.934;6.934;2023-02-13T08:43:03;17.20;;;8.00;;
5173;SDS011;2606;50.934;6.934;2023-02-13T08:45:30;14.83;;;7.77;;
5173;SDS011;2606;50.934;6.934;2023-02-13T08:47:59;14.80;;;7.20;;
5173;SDS011;2606;50.934;6.934;2023-02-13T08:50:27;13.87;;;7.67;;
5173;SDS011;2606;50.934;6.934;2023-02-13T08:52:54;17.30;;;7.23;;
5173;SDS011;2606;50.934;6.934;2023-02-13T08:55:19;13.00;;;6.70;;
5173;SDS011;2606;50.934;6.934;2023-02-13T08:57:45;13.73;;;6.97;;
5173;SDS011;2606;50.934;6.934;2023-02-13T09:00:10;10.70;;;6.67;;
5173;SDS011;2606;50.934;6.934;2023-02-13T09:02:36;12.97;;;7.00;;
5173;SDS011;2606;50.934;6.934;2023-02-13T09:05:02;19.87;;;8.60;;
5173;SDS011;2606;50.934;6.934;2023-02-13T09:07:28;15.40;;;8.13;;
5173;SDS011;2606;50.934;6.934;2023-02-13T09:09:53;16.47;;;8.13;;
5173;SDS011;2606;50.934;6.934;2023-02-13T09:12:19;13.20;;;7.70;;
5173;SDS011;2606;50.934;6.934;2023-02-13T09:14:46;14.77;;;7.10;;
5173;SDS011;2606;50.934;6.934;2023-02-13T09:17:11;13.60;;;7.23;;
5173;SDS011;2606;50.934;6.934;2023-02-13T09:19:38;12.63;;;7.70;;
5173;SDS011;2606;50.934;6.934;2023-02-13T09:22:03;19.70;;;7.97;;
5173;SDS011;2606;50.934;6.934;2023-02-13T09:24:29;16.67;;;7.30;;
5173;SDS011;2606;50.934;6.934;2023-02-13T09:26:54;13.03;;;7.60;;
5173;SDS011;2606;50.934;6.934;2023-02-13T09:29:20;16.37;;;8.20;;
5173;SDS011;2606;50.934;6.934;2023-02-13T09:31:46;15.20;;;8.10;;
5173;SDS011;2606;50.934;6.934;2023-02-13T09:34:11;12.90;;;7.07;;
5173;SDS011;2606;50.934;6.934;2023-02-13T09:36:37;14.60;;;8.00;;
5173;SDS011;2606;50.934;6.934;2023-02-13T09:39:03;13.93;;;7.50;;
5173;SDS011;2606;50.934;6.934;2023-02-13T09:41:34;16.90;;;8.03;;
5173;SDS011;2606;50.934;6.934;2023-02-13T09:44:04;14.30;;;7.17;;
5173;SDS011;2606;50.934;6.934;2023-02-13T09:46:57;13.30;;;7.33;;
5173;SDS011;2606;50.934;6.934;2023-02-13T09:49:25;19.20;;;8.20;;
5173;SDS011;2606;50.934;6.934;2023-02-13T09:51:54;12.50;;;6.93;;
5173;SDS011;2606;50.934;6.934;2023-02-13T09:54:21;14.10;;;7.13;;
5173;SDS011;2606;50.934;6.934;2023-02-13T09:57:07;15.80;;;8.30;;
5173;SDS011;2606;50.934;6.934;2023-02-13T10:16:11;13.10;;;7.03;;
5173;SDS011;2606;50.934;6.934;2023-02-13T10:18:44;12.50;;;6.80;;
5173;SDS011;2606;50.934;6.934;2023-02-13T10:21:10;11.10;;;7.07;;
5173;SDS011;2606;50.934;6.934;2023-02-13T10:23:45;18.57;;;11.40;;
5173;SDS011;2606;50.934;6.934;2023-02-13T10:26:20;16.90;;;7.90;;
5173;SDS011;2606;50.934;6.934;2023-02-13T10:28:58;14.47;;;7.50;;
5173;SDS011;2606;50.934;6.934;2023-02-13T10:31:48;15.90;;;8.00;;
5173;SDS011;2606;50.934;6.934;2023-02-13T10:34:16;13.60;;;7.73;;
5173;SDS011;2606;50.934;6.934;2023-02-13T10:36:45;14.33;;;7.10;;
5173;SDS011;2606;50.934;6.934;2023-02-13T10:44:33;11.97;;;7.13;;
5173;SDS011;2606;50.934;6.934;2023-02-13T10:49:54;12.00;;;6.30;;
5173;SDS011;2606;50.934;6.934;2023-02-13T10:52:24;11.50;;;6.60;;
5173;SDS011;2606;50.934;6.934;2023-02-13T11:03:14;11.20;;;6.53;;
5173;SDS011;2606;50.934;6.934;2023-02-13T11:05:43;12.10;;;6.53;;
5173;SDS011;2606;50.934;6.934;2023-02-13T11:10:42;14.57;;;7.40;;
5173;SDS011;2606;50.934;6.934;2023-02-13T11:13:18;13.77;;;8.23;;
5173;SDS011;2606;50.934;6.934;2023-02-13T11:16:05;10.07;;;5.70;;
5173;SDS011;2606;50.934;6.934;2023-02-13T11:18:33;14.83;;;6.70;;
5173;SDS011;2606;50.934;6.934;2023-02-13T11:21:07;11.20;;;6.40;;
5173;SDS011;2606;50.934;6.934;2023-02-13T11:26:22;11.40;;;6.43;;
5173;SDS011;2606;50.934;6.934;2023-02-13T11:28:58;12.70;;;7.20;;
5173;SDS011;2606;50.934;6.934;2023-02-13T11:31:30;17.67;;;8.30;;
5173;SDS011;2606;50.934;6.934;2023-02-13T11:33:58;11.17;;;6.43;;
5173;SDS011;2606;50.934;6.934;2023-02-13T11:36:41;8.73;;;5.07;;
5173;SDS011;2606;50.934;6.934;2023-02-13T11:39:20;9.23;;;5.40;;
5173;SDS011;2606;50.934;6.934;2023-02-13T11:41:47;14.83;;;6.70;;
5173;SDS011;2606;50.934;6.934;2023-02-13T11:44:25;12.90;;;5.90;;
5173;SDS011;2606;50.934;6.934;2023-02-13T11:46:56;8.50;;;4.90;;
5173;SDS011;2606;50.934;6.934;2023-02-13T11:49:25;16.97;;;6.20;;
5173;SDS011;2606;50.934;6.934;2023-02-13T11:57:29;14.10;;;5.87;;
5173;SDS011;2606;50.934;6.934;2023-02-13T11:59:56;11.30;;;5.00;;
5173;SDS011;2606;50.934;6.934;2023-02-13T12:02:24;9.73;;;4.93;;
5173;SDS011;2606;50.934;6.934;2023-02-13T12:05:23;11.00;;;5.67;;
5173;SDS011;2606;50.934;6.934;2023-02-13T12:07:54;10.33;;;5.37;;
5173;SDS011;2606;50.934;6.934;2023-02-13T12:10:24;14.43;;;7.63;;
5173;SDS011;2606;50.934;6.934;2023-02-13T12:13:04;11.00;;;5.40;;
5173;SDS011;2606;50.934;6.934;2023-02-13T12:15:39;11.80;;;6.60;;
5173;SDS011;2606;50.934;6.934;2023-02-13T12:21:04;8.60;;;4.83;;
5173;SDS011;2606;50.934;6.934;2023-02-13T12:26:19;7.30;;;4.60;;
5173;SDS011;2606;50.934;6.934;2023-02-13T12:29:13;8.60;;;4.47;;
5173;SDS011;2606;50.934;6.934;2023-02-13T12:32:17;12.77;;;5.30;;
5173;SDS011;2606;50.934;6.934;2023-02-13T12:51:18;5.77;;;3.40;;
5173;SDS011;2606;50.934;6.934;2023-02-13T12:54:14;6.20;;;4.13;;
5173;SDS011;2606;50.934;6.934;2023-02-13T12:56:55;6.90;;;3.97;;
5173;SDS011;2606;50.934;6.934;2023-02-13T13:10:15;6.97;;;2.90;;
5173;SDS011;2606;50.934;6.934;2023-02-13T13:21:25;6.57;;;3.83;;
5173;SDS011;2606;50.934;6.934;2023-02-13T13:24:49;16.00;;;9.90;;
5173;SDS011;2606;50.934;6.934;2023-02-13T13:27:10;5.63;;;3.27;;
5173;SDS011;2606;50.934;6.934;2023-02-13T13:29:54;4.20;;;2.43;;
5173;SDS011;2606;50.934;6.934;2023-02-13T13:32:39;5.13;;;3.07;;
5173;SDS011;2606;50.934;6.934;2023-02-13T13:35:11;6.57;;;2.67;;
5173;SDS011;2606;50.934;6.934;2023-02-13T13:37:45;7.10;;;3.33;;
5173;SDS011;2606;50.934;6.934;2023-02-13T13:40:42;5.23;;;3.20;;
5173;SDS011;2606;50.934;6.934;2023-02-13T13:43:24;6.10;;;3.60;;
5173;SDS011;2606;50.934;6.934;2023-02-13T13:51:38;5.20;;;2.77;;
5173;SDS011;2606;50.934;6.934;2023-02-13T13:59:17;3.93;;;2.70;;
5173;SDS011;2606;50.934;6.934;2023-02-13T14:01:44;6.10;;;2.80;;
5173;SDS011;2606;50.934;6.934;2023-02-13T14:11:50;4.60;;;1.97;;
5173;SDS011;2606;50.934;6.934;2023-02-13T14:16:51;4.23;;;2.90;;
5173;SDS011;2606;50.934;6.934;2023-02-13T14:19:35;3.53;;;2.30;;
5173;SDS011;2606;50.934;6.934;2023-02-13T14:27:23;3.43;;;2.03;;
5173;SDS011;2606;50.934;6.934;2023-02-13T14:29:54;3.37;;;2.63;;
5173;SDS011;2606;50.934;6.934;2023-02-13T14:32:30;3.90;;;2.90;;
5173;SDS011;2606;50.934;6.934;2023-02-13T14:35:02;2.97;;;2.40;;
5173;SDS011;2606;50.934;6.934;2023-02-13T14:37:51;3.23;;;2.40;;
5173;SDS011;2606;50.934;6.934;2023-02-13T14:45:47;2.67;;;2.17;;
5173;SDS011;2606;50.934;6.934;2023-02-13T14:48:39;2.50;;;1.87;;
5173;SDS011;2606;50.934;6.934;2023-02-13T14:51:21;2.83;;;1.80;;
5173;SDS011;2606;50.934;6.934;2023-02-13T14:53:54;5.93;;;2.80;;
5173;SDS011;2606;50.934;6.934;2023-02-13T14:56:23;5.47;;;2.57;;
5173;SDS011;2606;50.934;6.934;2023-02-13T14:58:53;3.17;;;1.80;;
5173;SDS011;2606;50.934;6.934;2023-02-13T15:01:36;1.87;;;1.40;;
5173;SDS011;2606;50.934;6.934;2023-02-13T15:04:21;2.70;;;1.90;;
5173;SDS011;2606;50.934;6.934;2023-02-13T15:07:12;3.10;;;1.67;;
5173;SDS011;2606;50.934;6.934;2023-02-13T15:09:50;2.63;;;1.90;;
5173;SDS011;2606;50.934;6.934;2023-02-13T15:14:56;2.63;;;1.70;;
5173;SDS011;2606;50.934;6.934;2023-02-13T15:17:25;4.30;;;1.50;;
5173;SDS011;2606;50.934;6.934;2023-02-13T15:19:54;3.70;;;2.20;;
5173;SDS011;2606;50.934;6.934;2023-02-13T15:22:28;1.80;;;1.70;;
5173;SDS011;2606;50.934;6.934;2023-02-13T15:25:00;3.27;;;1.60;;
5173;SDS011;2606;50.934;6.934;2023-02-13T15:27:27;4.87;;;3.43;;
5173;SDS011;2606;50.934;6.934;2023-02-13T15:30:01;7.67;;;4.10;;
5173;SDS011;2606;50.934;6.934;2023-02-13T15:32:43;5.10;;;2.87;;
5173;SDS011;2606;50.934;6.934;2023-02-13T15:35:25;5.80;;;2.40;;
5173;SDS011;2606;50.934;6.934;2023-02-13T15:37:51;5.70;;;2.70;;
5173;SDS011;2606;50.934;6.934;2023-02-13T15:40:27;2.63;;;1.77;;
5173;SDS011;2606;50.934;6.934;2023-02-13T15:42:55;1.97;;;1.50;;
5173;SDS011;2606;50.934;6.934;2023-02-13T15:45:22;5.30;;;2.50;;
5173;SDS011;2606;50.934;6.934;2023-02-13T15:47:50;3.20;;;2.10;;
5173;SDS011;2606;50.934;6.934;2023-02-13T15:50:26;4.20;;;2.27;;
5173;SDS011;2606;50.934;6.934;2023-02-13T15:52:54;2.30;;;1.83;;
5173;SDS011;2606;50.934;6.934;2023-02-13T15:55:23;2.23;;;1.83;;
5173;SDS011;2606;50.934;6.934;2023-02-13T15:57:51;2.80;;;1.50;;
5173;SDS011;2606;50.934;6.934;2023-02-13T16:00:41;3.50;;;2.13;;
5173;SDS011;2606;50.934;6.934;2023-02-13T16:03:07;3.57;;;2.10;;
5173;SDS011;2606;50.934;6.934;2023-02-13T16:05:39;9.27;;;2.20;;
5173;SDS011;2606;50.934;6.934;2023-02-13T16:16:25;8.97;;;4.30;;
5173;SDS011;2606;50.934;6.934;2023-02-13T16:18:52;7.30;;;3.30;;
5173;SDS011;2606;50.934;6.934;2023-02-13T16:21:22;5.93;;;2.67;;
5173;SDS011;2606;50.934;6.934;2023-02-13T16:23:51;6.90;;;2.83;;
5173;SDS011;2606;50.934;6.934;2023-02-13T16:26:21;6.30;;;3.13;;
5173;SDS011;2606;50.934;6.934;2023-02-13T16:28:47;7.03;;;3.10;;
5173;SDS011;2606;50.934;6.934;2023-02-13T16:31:13;5.90;;;2.67;;
5173;SDS011;2606;50.934;6.934;2023-02-13T16:33:41;4.77;;;2.47;;
5173;SDS011;2606;50.934;6.934;2023-02-13T16:38:39;6.53;;;2.77;;
5173;SDS011;2606;50.934;6.934;2023-02-13T16:43:50;5.03;;;2.30;;
5173;SDS011;2606;50.934;6.934;2023-02-13T16:51:29;5.80;;;3.67;;
5173;SDS011;2606;50.934;6.934;2023-02-13T16:56:54;4.77;;;3.03;;
5173;SDS011;2606;50.934;6.934;2023-02-13T16:59:23;4.97;;;3.30;;
5173;SDS011;2606;50.934;6.934;2023-02-13T17:04:43;4.97;;;3.70;;
5173;SDS011;2606;50.934;6.934;2023-02-13T17:07:18;6.70;;;3.77;;
5173;SDS011;2606;50.934;6.934;2023-02-13T17:09:59;8.70;;;3.70;;
5173;SDS011;2606;50.934;6.934;2023-02-13T17:12:28;6.47;;;3.60;;
5173;SDS011;2606;50.934;6.934;2023-02-13T17:14:56;8.80;;;5.27;;
5173;SDS011;2606;50.934;6.934;2023-02-13T17:17:23;14.20;;;6.37;;
5173;SDS011;2606;50.934;6.934;2023-02-13T17:19:50;5.20;;;3.67;;
5173;SDS011;2606;50.934;6.934;2023-02-13T17:22:25;5.33;;;3.10;;
5173;SDS011;2606;50.934;6.934;2023-02-13T17:24:57;7.83;;;4.20;;
5173;SDS011;2606;50.934;6.934;2023-02-13T17:27:23;10.53;;;5.77;;
5173;SDS011;2606;50.934;6.934;2023-02-13T17:29:49;15.10;;;6.67;;
5173;SDS011;2606;50.934;6.934;2023-02-13T17:32:19;14.30;;;6.87;;
5173;SDS011;2606;50.934;6.934;2023-02-13T17:34:47;15.67;;;6.33;;
5173;SDS011;2606;50.934;6.934;2023-02-13T17:37:19;15.17;;;6.10;;
5173;SDS011;2606;50.934;6.934;2023-02-13T17:39:50;15.43;;;6.57;;
5173;SDS011;2606;50.934;6.934;2023-02-13T17:42:18;19.63;;;6.97;;
5173;SDS011;2606;50.934;6.934;2023-02-13T17:44:52;10.77;;;6.60;;
5173;SDS011;2606;50.934;6.934;2023-02-13T17:47:18;12.20;;;6.43;;
5173;SDS011;2606;50.934;6.934;2023-02-13T17:49:45;18.50;;;5.50;;
5173;SDS011;2606;50.934;6.934;2023-02-13T17:52:18;10.77;;;4.30;;
5173;SDS011;2606;50.934;6.934;2023-02-13T17:54:46;8.70;;;5.43;;
5173;SDS011;2606;50.934;6.934;2023-02-13T17:57:13;9.83;;;5.17;;
5173;SDS011;2606;50.934;6.934;2023-02-13T17:59:39;8.33;;;4.20;;
5173;SDS011;2606;50.934;6.934;2023-02-13T18:02:12;9.13;;;6.00;;
5173;SDS011;2606;50.934;6.934;2023-02-13T18:04:42;20.10;;;11.43;;
5173;SDS011;2606;50.934;6.934;2023-02-13T18:07:09;20.17;;;11.50;;
5173;SDS011;2606;50.934;6.934;2023-02-13T18:09:37;17.23;;;7.70;;
5173;SDS011;2606;50.934;6.934;2023-02-13T18:12:04;11.93;;;6.80;;
5173;SDS011;2606;50.934;6.934;2023-02-13T18:14:32;15.03;;;7.60;;
5173;SDS011;2606;50.934;6.934;2023-02-13T18:16:59;12.90;;;8.10;;
5173;SDS011;2606;50.934;6.934;2023-02-13T18:19:25;15.30;;;7.20;;
5173;SDS011;2606;50.934;6.934;2023-02-13T18:21:51;14.53;;;7.50;;
5173;SDS011;2606;50.934;6.934;2023-02-13T18:24:17;20.67;;;8.57;;
5173;SDS011;2606;50.934;6.934;2023-02-13T18:26:42;12.27;;;7.03;;
5173;SDS011;2606;50.934;6.934;2023-02-13T18:29:08;13.13;;;6.90;;
5173;SDS011;2606;50.934;6.934;2023-02-13T18:31:33;11.20;;;6.03;;
5173;SDS011;2606;50.934;6.934;2023-02-13T18:33:59;9.73;;;4.70;;
5173;SDS011;2606;50.934;6.934;2023-02-13T18:36:25;12.37;;;5.03;;
5173;SDS011;2606;50.934;6.934;2023-02-13T18:38:50;10.43;;;6.03;;
5173;SDS011;2606;50.934;6.934;2023-02-13T18:41:17;15.77;;;5.80;;